Time;durP1;ratioP1;P1;durP2;ratioP2;P2;SDS_P1;SDS_P2;PMS_P1;PMS_P2;Temp;Humidity;BMP_temperature;BMP_pressure;BME280_temperature;BME280_humidity;BME280_pressure;Samples;Min_cycle;Max_cycle;Signal;HPM_P1;HPM_P2
2021/10/23 00:02:05;;;;;;;21.48;10.95;;;9.20;99.90;;;6.84;100.00;101332.16;5067771;28;20190;-88
2021/10/23 00:04:32;;;;;;;26.35;12.50;;;9.20;99.90;;;6.81;100.00;101335.13;5050776;28;20580;-88
2021/10/23 00:06:59;;;;;;;27.52;12.35;;;9.20;99.90;;;6.81;100.00;101345.97;5051639;28;20416;-87
2021/10/23 00:09:26;;;;;;;26.00;13.13;;;9.20;99.90;;;6.81;100.00;101343.25;5064010;28;20113;-88
2021/10/23 00:11:54;;;;;;;32.97;14.93;;;9.20;99.90;;;6.85;100.00;101344.69;5071086;28;20131;-88
2021/10/23 00:14:22;;;;;;;28.35;14.73;;;9.20;99.90;;;6.88;100.00;101347.13;5069758;28;20039;-88
2021/10/23 00:16:50;;;;;;;27.15;14.43;;;9.20;99.90;;;6.93;100.00;101350.28;5072733;28;20122;-88
2021/10/23 00:19:17;;;;;;;29.42;14.75;;;9.20;99.90;;;6.94;100.00;101359.22;5068892;28;20040;-88
2021/10/23 00:21:44;;;;;;;36.58;16.52;;;9.20;99.90;;;6.99;100.00;101352.41;5069740;28;20142;-88
2021/10/23 00:24:12;;;;;;;29.40;15.88;;;9.20;99.90;;;7.07;100.00;101354.41;5070905;28;20111;-88
2021/10/23 00:26:39;;;;;;;35.53;16.05;;;9.20;99.90;;;7.10;100.00;101358.66;5071099;28;20072;-88
2021/10/23 00:29:07;;;;;;;37.30;17.42;;;9.30;99.90;;;7.16;100.00;101368.94;5051445;28;20062;-88
2021/10/23 00:31:35;;;;;;;44.13;17.63;;;9.30;99.90;;;7.16;100.00;101371.63;5070089;28;20052;-89
2021/10/23 00:34:03;;;;;;;38.25;16.35;;;9.30;99.90;;;7.19;100.00;101371.38;5070519;28;20047;-88
2021/10/23 00:36:30;;;;;;;35.17;16.17;;;9.30;99.90;;;7.20;100.00;101364.97;5068322;28;20071;-89
2021/10/23 00:38:58;;;;;;;34.95;16.98;;;9.40;99.90;;;7.20;100.00;101373.09;5074585;28;20052;-88
2021/10/23 00:41:25;;;;;;;44.28;18.45;;;9.40;99.90;;;7.11;100.00;101376.63;5071717;28;20124;-88
2021/10/23 00:43:52;;;;;;;34.17;15.38;;;9.40;99.90;;;7.09;100.00;101373.22;5073235;28;20122;-89
2021/10/23 00:46:19;;;;;;;27.35;14.48;;;9.40;99.90;;;7.03;100.00;101386.31;5054169;28;20129;-88
2021/10/23 00:48:48;;;;;;;42.72;15.57;;;9.50;99.90;;;7.05;100.00;101384.31;5070654;28;20115;-88
2021/10/23 00:51:17;;;;;;;41.45;15.30;;;9.40;99.90;;;7.03;100.00;101388.16;5075214;28;20060;-88
2021/10/23 00:53:45;;;;;;;31.27;13.95;;;9.40;99.90;;;7.00;100.00;101391.13;5051918;28;20036;-89
2021/10/23 00:56:13;;;;;;;31.17;15.07;;;9.40;99.90;;;7.02;100.00;101390.00;5054754;28;20044;-88
2021/10/23 00:58:40;;;;;;;26.13;13.45;;;9.40;99.90;;;7.07;100.00;101386.88;5054830;28;20060;-89
2021/10/23 01:01:07;;;;;;;27.80;13.63;;;9.40;99.90;;;7.03;100.00;101383.59;5070211;28;20040;-88
2021/10/23 01:03:35;;;;;;;30.23;13.90;;;9.40;99.90;;;6.99;100.00;101384.88;5052036;28;20581;-89
2021/10/23 01:06:04;;;;;;;36.95;14.23;;;9.30;99.90;;;6.97;100.00;101399.56;5070367;28;20458;-88
2021/10/23 01:08:31;;;;;;;28.70;14.35;;;9.30;99.90;;;6.97;100.00;101392.28;5071901;28;20123;-88
2021/10/23 01:10:59;;;;;;;40.30;16.92;;;9.30;99.90;;;6.97;100.00;101397.69;5066749;28;20078;-90
2021/10/23 01:13:26;;;;;;;61.05;18.00;;;9.30;99.90;;;6.89;100.00;101392.09;5072814;28;20177;-88
2021/10/23 01:15:53;;;;;;;39.85;17.88;;;9.30;99.90;;;6.82;100.00;101402.63;5072187;28;20045;-88
2021/10/23 01:18:21;;;;;;;43.22;19.23;;;9.30;99.90;;;6.83;100.00;101401.66;5070976;28;20075;-88
2021/10/23 01:20:49;;;;;;;51.08;19.23;;;9.30;99.90;;;6.77;100.00;101404.06;5049780;28;20049;-88
2021/10/23 01:23:17;;;;;;;34.15;18.17;;;9.30;99.90;;;6.85;100.00;101398.78;5072861;28;20052;-89
2021/10/23 01:25:44;;;;;;;35.05;19.42;;;9.30;99.90;;;6.81;100.00;101405.47;5069206;28;20128;-89
2021/10/23 01:28:11;;;;;;;42.80;19.40;;;9.30;99.90;;;6.92;100.00;101402.66;5055382;28;20117;-89
2021/10/23 01:30:39;;;;;;;33.10;17.98;;;9.30;99.90;;;6.88;100.00;101394.97;5073816;28;20123;-88
2021/10/23 01:33:06;;;;;;;50.55;19.98;;;9.30;99.90;;;6.87;100.00;101401.38;5076157;28;20146;-88
2021/10/23 01:35:33;;;;;;;55.17;21.15;;;9.30;99.90;;;6.87;100.00;101396.81;5074023;28;20064;-88
2021/10/23 01:38:02;;;;;;;51.67;21.33;;;9.30;99.90;;;6.94;100.00;101402.53;5073361;28;20581;-89
2021/10/23 01:40:33;;;;;;;41.40;19.50;;;9.30;99.90;;;6.93;100.00;101396.28;5052592;28;20072;-88
2021/10/23 01:43:01;;;;;;;97.60;24.67;;;9.30;99.90;;;6.95;100.00;101398.81;5055349;28;20048;-88
2021/10/23 01:45:29;;;;;;;53.20;22.75;;;9.30;99.90;;;6.97;100.00;101388.72;5053486;28;20044;-88
2021/10/23 01:47:56;;;;;;;43.70;20.20;;;9.30;99.90;;;6.96;100.00;101397.84;5071700;28;20123;-89
2021/10/23 01:50:26;;;;;;;42.63;21.23;;;9.30;99.90;;;6.94;100.00;101397.13;5069612;28;20032;-89
2021/10/23 01:52:55;;;;;;;43.97;21.48;;;9.30;99.90;;;6.93;100.00;101396.28;5071289;28;20464;-88
2021/10/23 01:55:24;;;;;;;56.97;24.98;;;9.30;99.90;;;6.94;100.00;101387.13;5069194;28;20175;-88
2021/10/23 01:57:52;;;;;;;69.50;25.05;;;9.30;99.90;;;6.92;100.00;101385.59;5063742;28;20390;-88
2021/10/23 02:00:19;;;;;;;49.60;22.25;;;9.30;99.90;;;6.87;100.00;101385.13;5069428;28;20083;-89
2021/10/23 02:02:47;;;;;;;43.92;21.63;;;9.30;99.90;;;6.84;100.00;101384.41;5070292;28;20040;-88
2021/10/23 02:05:14;;;;;;;45.45;20.83;;;9.30;99.90;;;6.82;100.00;101374.75;5069621;28;20052;-88
2021/10/23 02:07:42;;;;;;;87.07;25.25;;;9.30;99.90;;;6.76;100.00;101375.28;5048155;28;20127;-88
2021/10/23 02:10:10;;;;;;;42.75;21.60;;;9.30;99.90;;;6.75;100.00;101363.59;5053308;28;20041;-88
2021/10/23 02:12:39;;;;;;;59.72;23.08;;;9.30;99.90;;;6.74;100.00;101370.03;5067638;28;20037;-89
2021/10/23 02:15:08;;;;;;;98.45;23.70;;;9.30;99.90;;;6.74;100.00;101366.44;5066805;28;20089;-88
2021/10/23 02:17:36;;;;;;;59.55;23.90;;;9.20;99.90;;;6.71;100.00;101378.41;5068912;28;20119;-88
2021/10/23 02:20:05;;;;;;;65.72;21.83;;;9.20;99.90;;;6.64;100.00;101379.94;5066852;28;20135;-87
2021/10/23 02:22:33;;;;;;;42.58;20.45;;;9.20;99.90;;;6.62;100.00;101377.38;5049257;28;20496;-88
2021/10/23 02:25:00;;;;;;;166.32;27.55;;;9.20;99.90;;;6.61;100.00;101375.69;5073011;28;20045;-88
2021/10/23 02:27:27;;;;;;;44.80;20.88;;;9.20;99.90;;;6.59;100.00;101368.69;5072027;28;20028;-89
2021/10/23 02:29:56;;;;;;;46.75;21.23;;;9.10;99.90;;;6.59;100.00;101360.59;5054015;28;20471;-88
2021/10/23 02:32:23;;;;;;;41.03;20.63;;;9.20;99.90;;;6.54;100.00;101360.13;5071774;28;20152;-89
2021/10/23 02:34:51;;;;;;;42.28;19.80;;;9.10;99.90;;;6.56;100.00;101361.69;5070530;28;20121;-89
2021/10/23 02:37:18;;;;;;;45.45;20.70;;;9.00;99.90;;;6.56;100.00;101359.00;5069197;28;20086;-89
2021/10/23 02:39:46;;;;;;;38.42;18.63;;;9.00;99.90;;;6.52;100.00;101359.41;5072426;28;20507;-87
2021/10/23 02:42:13;;;;;;;39.67;19.95;;;9.00;99.90;;;6.61;100.00;101372.13;5072794;28;20040;-88
2021/10/23 02:44:41;;;;;;;36.47;19.95;;;9.00;99.90;;;6.69;100.00;101376.84;5051392;28;20690;-88
2021/10/23 02:47:10;;;;;;;38.78;19.13;;;9.00;99.90;;;6.76;100.00;101373.44;5070485;28;20044;-88
2021/10/23 02:49:38;;;;;;;42.20;19.88;;;9.00;99.90;;;6.83;100.00;101371.03;5072749;28;20461;-88
2021/10/23 02:52:06;;;;;;;37.80;18.65;;;9.00;99.90;;;6.90;100.00;101396.53;5070949;28;20051;-89
2021/10/23 02:54:34;;;;;;;38.63;20.23;;;9.00;99.90;;;6.92;100.00;101399.97;5068756;28;20545;-89
2021/10/23 02:57:01;;;;;;;44.25;21.33;;;9.00;99.90;;;6.99;100.00;101406.53;5069856;28;20165;-88
2021/10/23 02:59:28;;;;;;;40.40;19.65;;;9.00;99.90;;;7.01;100.00;101409.94;5049752;28;20477;-89
2021/10/23 03:01:56;;;;;;;42.30;19.92;;;9.00;99.90;;;6.99;100.00;101414.66;5051412;28;20486;-88
2021/10/23 03:04:25;;;;;;;40.88;20.25;;;9.10;99.90;;;6.97;100.00;101397.69;5064968;28;20039;-88
2021/10/23 03:06:52;;;;;;;60.92;22.48;;;9.10;99.90;;;6.92;100.00;101399.09;5068378;28;20132;-88
2021/10/23 03:09:20;;;;;;;46.88;21.50;;;9.10;99.90;;;6.84;100.00;101399.81;5069494;28;20040;-87
2021/10/23 03:11:47;;;;;;;42.15;22.10;;;9.10;99.90;;;6.80;100.00;101411.91;5070284;28;20051;-89
2021/10/23 03:14:14;;;;;;;42.45;21.00;;;9.10;99.90;;;6.81;100.00;101429.81;5067354;28;20123;-88
2021/10/23 03:16:42;;;;;;;45.67;22.10;;;9.10;99.90;;;6.88;100.00;101443.69;5051706;28;20052;-87
2021/10/23 03:19:09;;;;;;;68.38;24.30;;;9.10;99.90;;;6.91;100.00;101446.97;5069277;28;20041;-88
2021/10/23 03:21:38;;;;;;;44.45;21.25;;;9.10;99.90;;;6.86;100.00;101446.50;5066158;28;20463;-88
2021/10/23 03:24:05;;;;;;;42.20;21.48;;;9.10;99.90;;;6.82;100.00;101448.63;5072639;28;20067;-88
2021/10/23 03:26:34;;;;;;;43.40;21.70;;;9.10;99.90;;;6.84;100.00;101445.81;5072638;28;20123;-88
2021/10/23 03:29:01;;;;;;;42.70;21.13;;;9.10;99.90;;;6.80;100.00;101444.38;5070631;28;20044;-88
2021/10/23 03:31:29;;;;;;;62.60;23.58;;;9.10;99.90;;;6.80;100.00;101453.34;5069426;28;20067;-87
2021/10/23 03:33:56;;;;;;;58.60;24.35;;;9.10;99.90;;;6.79;100.00;101451.59;5072628;28;20496;-88
2021/10/23 03:36:23;;;;;;;47.28;22.75;;;9.10;99.90;;;6.81;100.00;101454.19;5069217;28;20049;-89
2021/10/23 03:38:52;;;;;;;57.55;24.65;;;9.10;99.90;;;6.78;100.00;101451.78;5070217;28;20109;-90
2021/10/23 03:41:19;;;;;;;53.17;23.50;;;9.10;99.90;;;6.75;100.00;101447.47;5071260;28;20043;-88
2021/10/23 03:43:46;;;;;;;93.32;28.23;;;9.10;99.90;;;6.72;100.00;101441.47;5071096;28;20089;-87
2021/10/23 03:46:14;;;;;;;557.35;52.40;;;9.10;99.90;;;6.67;100.00;101435.63;5051740;28;20048;-89
2021/10/23 03:48:41;;;;;;;58.53;26.25;;;9.10;99.90;;;6.62;100.00;101431.47;5070528;28;21601;-87
2021/10/23 03:51:08;;;;;;;154.15;30.17;;;9.10;99.90;;;6.54;100.00;101436.72;5071530;28;20052;-89
2021/10/23 03:53:36;;;;;;;93.85;27.83;;;9.10;99.90;;;6.53;100.00;101426.91;5069906;28;21026;-88
2021/10/23 03:56:05;;;;;;;43.17;22.48;;;9.10;99.90;;;6.51;100.00;101423.47;5065342;28;20045;-88
2021/10/23 03:58:32;;;;;;;57.05;24.02;;;9.00;99.90;;;6.56;100.00;101420.34;5066699;28;20044;-88
2021/10/23 04:01:00;;;;;;;44.22;22.52;;;9.00;99.90;;;6.53;100.00;101417.91;5067374;28;20039;-88
2021/10/23 04:03:27;;;;;;;60.90;22.90;;;9.00;99.90;;;6.56;100.00;101417.66;5065003;28;20054;-88
2021/10/23 04:05:55;;;;;;;45.67;21.98;;;9.00;99.90;;;6.53;100.00;101424.19;5064997;28;20118;-88
2021/10/23 04:08:22;;;;;;;57.50;23.98;;;9.00;99.90;;;6.58;100.00;101427.31;5065096;28;20529;-88
2021/10/23 04:10:50;;;;;;;58.55;23.48;;;9.00;99.90;;;6.58;100.00;101423.78;5052160;28;20084;-88
2021/10/23 04:13:18;;;;;;;53.80;25.13;;;9.00;99.90;;;6.52;100.00;101425.16;5069717;28;20470;-89
2021/10/23 04:15:46;;;;;;;51.08;22.90;;;8.90;99.90;;;6.43;100.00;101431.38;5074465;28;20094;-88
2021/10/23 04:18:13;;;;;;;49.28;23.63;;;8.90;99.90;;;6.40;100.00;101427.13;5054550;28;21631;-89
2021/10/23 04:20:40;;;;;;;70.88;25.42;;;8.90;99.90;;;6.38;100.00;101431.81;5071517;28;20075;-89
2021/10/23 04:23:07;;;;;;;58.33;24.05;;;8.90;99.90;;;6.33;100.00;101435.91;5071076;28;20126;-88
2021/10/23 04:25:35;;;;;;;51.80;23.38;;;8.90;99.90;;;6.32;100.00;101434.16;5071232;28;20064;-88
2021/10/23 04:28:02;;;;;;;62.53;24.58;;;8.90;99.90;;;6.29;100.00;101439.88;5055483;28;20056;-88
2021/10/23 04:30:31;;;;;;;97.75;27.05;;;8.90;99.90;;;6.29;100.00;101440.72;5074436;28;20078;-88
2021/10/23 04:32:58;;;;;;;48.78;22.98;;;8.80;99.90;;;6.34;100.00;101441.19;5075309;28;20123;-88
2021/10/23 04:35:25;;;;;;;97.38;25.02;;;8.80;99.90;;;6.34;100.00;101445.72;5075949;28;20496;-88
2021/10/23 04:37:52;;;;;;;51.22;22.50;;;8.80;99.90;;;6.24;100.00;101448.34;5074848;28;20048;-88
2021/10/23 04:40:20;;;;;;;43.35;21.88;;;8.80;99.90;;;6.18;100.00;101438.94;5073901;28;20067;-88
2021/10/23 04:42:47;;;;;;;57.05;24.80;;;8.80;99.90;;;6.21;100.00;101448.66;5070906;28;20040;-88
2021/10/23 04:45:15;;;;;;;47.53;22.33;;;8.70;99.90;;;6.21;100.00;101454.91;5067663;28;20040;-88
2021/10/23 04:47:43;;;;;;;47.80;21.90;;;8.70;99.90;;;6.23;100.00;101446.66;5055905;28;20307;-89
2021/10/23 04:50:11;;;;;;;45.17;21.83;;;8.70;99.90;;;6.21;100.00;101446.78;5072697;28;20117;-87
2021/10/23 04:52:38;;;;;;;49.03;22.08;;;8.70;99.90;;;6.21;100.00;101449.50;5073320;28;20743;-88
2021/10/23 04:55:06;;;;;;;63.42;24.65;;;8.70;99.90;;;6.25;100.00;101450.94;5052385;28;20068;-88
2021/10/23 04:57:34;;;;;;;75.10;25.33;;;8.70;99.90;;;6.29;100.00;101456.09;5071952;28;20147;-87
2021/10/23 05:00:01;;;;;;;69.50;25.75;;;8.70;99.90;;;6.33;100.00;101454.81;5071502;28;20163;-88
2021/10/23 05:02:29;;;;;;;76.50;24.10;;;8.70;99.90;;;6.37;100.00;101458.97;5052033;28;20570;-88
2021/10/23 05:04:57;;;;;;;49.10;23.08;;;8.70;99.90;;;6.36;100.00;101457.25;5071365;28;20036;-89
2021/10/23 05:07:25;;;;;;;46.95;21.48;;;8.70;99.90;;;6.39;100.00;101459.69;5069531;28;20552;-88
2021/10/23 05:09:52;;;;;;;63.92;25.77;;;8.70;99.90;;;6.35;100.00;101469.06;5069765;28;20040;-88
2021/10/23 05:12:19;;;;;;;208.27;34.17;;;8.70;99.90;;;6.35;100.00;101469.06;5051994;28;20122;-88
2021/10/23 05:49:54;;;;;;;74.78;24.10;;;8.80;99.90;;;6.60;100.00;101475.88;969194;22;21659;-88
2021/10/23 05:52:21;;;;;;;58.22;25.35;;;8.80;99.90;;;6.64;100.00;101475.50;5021230;28;20045;-87
2021/10/23 05:54:48;;;;;;;68.93;26.13;;;8.80;99.90;;;6.60;100.00;101489.41;5022727;28;20118;-89
2021/10/23 05:57:16;;;;;;;59.90;25.88;;;8.80;99.90;;;6.64;100.00;101494.41;5042001;28;20045;-88
2021/10/23 05:59:46;;;;;;;60.25;25.73;;;8.80;99.90;;;6.69;100.00;101496.72;5029506;28;20698;-89
2021/10/23 06:02:24;;;;;;;72.82;28.15;;;8.90;99.90;;;6.72;100.00;101496.44;5042136;28;20044;-89
2021/10/23 06:04:55;;;;;;;84.35;27.98;;;8.90;99.90;;;6.65;100.00;101501.53;5032122;28;20118;-89
2021/10/23 06:07:24;;;;;;;70.55;28.48;;;8.90;99.90;;;6.64;100.00;101510.66;5049641;28;20056;-87
2021/10/23 06:09:53;;;;;;;99.88;29.70;;;9.00;99.90;;;6.70;100.00;101506.56;5031581;28;20114;-89
2021/10/23 06:12:20;;;;;;;72.00;28.30;;;8.90;99.90;;;6.70;100.00;101509.25;5030684;28;20519;-90
2021/10/23 06:14:48;;;;;;;59.60;26.95;;;9.00;99.90;;;6.77;100.00;101505.00;5049786;28;20044;-91
2021/10/23 06:17:15;;;;;;;114.47;32.20;;;9.00;99.90;;;6.87;100.00;101505.03;5031837;28;20049;-90
2021/10/23 06:19:42;;;;;;;72.47;28.02;;;9.00;99.90;;;6.98;100.00;101507.66;5049857;28;20502;-88
2021/10/23 06:22:11;;;;;;;67.43;28.20;;;9.00;99.90;;;7.04;100.00;101504.41;5032116;28;20110;-89
2021/10/23 06:24:41;;;;;;;68.35;28.98;;;9.10;99.90;;;7.10;100.00;101500.31;5049081;28;20555;-88
2021/10/23 06:27:09;;;;;;;86.25;30.42;;;9.10;99.90;;;7.18;100.00;101507.72;5031850;28;20580;-87
2021/10/23 06:29:36;;;;;;;67.20;28.42;;;9.20;99.90;;;7.21;100.00;101513.69;5049278;28;20102;-88
2021/10/23 06:32:05;;;;;;;90.00;30.10;;;9.20;99.90;;;7.23;100.00;101519.88;5049543;28;20075;-90
2021/10/23 06:34:32;;;;;;;62.53;26.60;;;9.20;99.90;;;7.24;100.00;101520.72;5029917;28;20083;-88
2021/10/23 06:37:00;;;;;;;90.47;29.75;;;9.30;99.90;;;7.30;100.00;101533.69;5049265;28;20048;-88
2021/10/23 06:39:28;;;;;;;67.28;27.92;;;9.30;99.90;;;7.30;100.00;101532.84;5030994;28;20053;-87
2021/10/23 06:41:56;;;;;;;87.32;30.40;;;9.40;99.90;;;7.32;100.00;101538.97;5049080;28;20132;-84
2021/10/23 06:44:23;;;;;;;75.20;28.23;;;9.40;99.90;;;7.39;100.00;101532.00;5031419;28;20134;-91
2021/10/23 06:46:50;;;;;;;75.65;28.73;;;9.40;99.90;;;7.38;100.00;101535.72;5032279;28;20144;-88
2021/10/23 06:49:18;;;;;;;88.90;28.35;;;9.40;99.90;;;7.38;100.00;101536.56;5031558;28;20060;-92
2021/10/23 06:51:50;;;;;;;67.28;28.20;;;9.50;99.90;;;7.37;100.00;101542.13;5035717;28;20045;-92
2021/10/23 06:54:17;;;;;;;66.63;27.15;;;9.50;99.90;;;7.44;100.00;101554.97;5050214;28;20486;-89
2021/10/23 06:56:46;;;;;;;66.72;27.13;;;9.60;99.90;;;7.39;100.00;101564.50;5048892;28;20071;-87
2021/10/23 06:59:13;;;;;;;83.32;29.35;;;9.50;99.90;;;7.37;100.00;101561.94;5048500;28;20076;-87
2021/10/23 07:01:41;;;;;;;89.00;28.80;;;9.50;99.90;;;7.37;100.00;101572.78;5049110;28;20106;-87
2021/10/23 07:04:08;;;;;;;84.07;30.40;;;9.60;99.90;;;7.43;100.00;101580.34;5048941;28;20565;-88
2021/10/23 07:06:35;;;;;;;113.05;32.10;;;9.60;99.90;;;7.52;100.00;101583.19;5048685;28;20072;-89
2021/10/23 07:09:02;;;;;;;104.63;32.10;;;9.60;99.90;;;7.57;100.00;101589.91;5037996;28;20079;-88
2021/10/23 07:11:30;;;;;;;65.05;26.70;;;9.70;99.90;;;7.57;100.00;101589.06;5030159;28;20054;-89
2021/10/23 07:13:59;;;;;;;93.00;29.90;;;9.70;99.90;;;7.53;100.00;101595.75;5048360;28;20053;-90
2021/10/23 07:16:29;;;;;;;74.45;27.20;;;9.70;99.90;;;7.47;100.00;101599.03;5032788;28;20040;-91
2021/10/23 07:18:57;;;;;;;66.33;26.07;;;9.70;99.90;;;7.36;100.00;101598.13;5031460;28;20049;-92
2021/10/23 07:21:24;;;;;;;68.85;26.50;;;9.70;99.90;;;7.31;100.00;101605.81;5032209;28;20049;-90
2021/10/23 07:23:53;;;;;;;59.33;25.40;;;9.70;99.90;;;7.39;100.00;101614.09;5030482;28;20045;-88
2021/10/23 07:26:21;;;;;;;71.15;25.45;;;9.70;99.90;;;7.47;100.00;101620.69;5032160;28;20114;-92
2021/10/23 07:28:48;;;;;;;81.57;26.35;;;9.70;99.90;;;7.56;100.00;101630.72;5030382;28;20088;-88
2021/10/23 07:31:17;;;;;;;69.03;26.38;;;9.70;99.90;;;7.65;100.00;101621.72;5048353;28;20045;-88
2021/10/23 07:33:45;;;;;;;74.57;27.70;;;9.70;99.90;;;7.83;100.00;101628.22;5048495;28;20098;-87
2021/10/23 07:36:17;;;;;;;84.80;28.60;;;9.70;99.90;;;7.89;100.00;101626.78;5048677;28;20040;-88
2021/10/23 07:38:44;;;;;;;;;;;9.80;99.90;;;7.91;100.00;101632.09;5049053;28;20059;-88
2021/10/23 07:41:11;;;;;;;67.85;25.52;;;9.80;99.90;;;7.95;100.00;101625.38;5030107;28;19928;-88
2021/10/23 07:43:39;;;;;;;74.43;27.50;;;9.90;99.90;;;8.11;100.00;101638.38;5028983;28;20142;-88
2021/10/23 07:46:06;;;;;;;68.93;26.00;;;9.90;99.90;;;8.14;100.00;101644.38;5030911;28;20073;-88
2021/10/23 07:48:36;;;;;;;78.70;28.90;;;9.90;99.90;;;8.30;100.00;101634.81;5052130;28;20102;-87
2021/10/23 07:51:04;;;;;;;72.85;27.08;;;10.00;99.90;;;8.38;100.00;101637.69;5033990;28;20551;-89
2021/10/23 07:53:31;;;;;;;78.47;27.98;;;10.10;99.90;;;8.31;100.00;101647.41;5052502;28;20072;-85
2021/10/23 07:55:58;;;;;;;77.55;28.38;;;10.10;99.90;;;8.31;100.00;101647.41;5050820;28;20041;-85
2021/10/23 07:58:26;;;;;;;72.50;28.67;;;10.10;99.90;;;8.47;100.00;101647.69;5051795;28;20076;-85
2021/10/23 08:00:53;;;;;;;70.68;27.95;;;10.20;99.90;;;8.64;100.00;101648.84;5052179;28;20408;-86
2021/10/23 08:03:23;;;;;;;83.28;30.00;;;10.30;99.90;;;8.85;100.00;101651.38;5033423;28;20160;-86
2021/10/23 08:05:52;;;;;;;66.03;27.27;;;10.30;99.90;;;9.10;100.00;101649.94;5051724;28;20496;-86
2021/10/23 08:08:19;;;;;;;66.82;27.30;;;10.40;99.90;;;9.28;100.00;101663.59;5051816;28;20892;-85
2021/10/23 08:10:47;;;;;;;68.97;28.00;;;10.50;99.90;;;9.37;100.00;101662.69;5051989;28;20049;-85
2021/10/23 08:13:14;;;;;;;70.18;27.70;;;10.60;99.90;;;9.51;100.00;101664.06;5051798;28;20052;-86
2021/10/23 08:15:41;;;;;;;64.63;26.83;;;10.70;99.90;;;9.47;100.00;101678.13;5050817;28;20065;-85
2021/10/23 08:18:09;;;;;;;64.75;26.88;;;10.80;99.90;;;9.41;100.00;101679.56;5051337;28;20056;-85
2021/10/23 08:20:36;;;;;;;63.75;25.77;;;10.80;99.90;;;9.15;100.00;101673.91;5051666;28;20098;-85
2021/10/23 08:23:06;;;;;;;68.47;27.25;;;10.80;99.90;;;9.04;100.00;101682.22;5033523;28;20079;-86
2021/10/23 08:25:35;;;;;;;58.25;23.67;;;10.90;99.90;;;8.93;100.00;101681.41;5050231;28;20413;-85
2021/10/23 08:28:02;;;;;;;62.13;25.70;;;10.90;99.90;;;8.83;100.00;101680.53;5050307;28;20498;-86
2021/10/23 08:30:30;;;;;;;62.05;24.65;;;10.90;99.90;;;8.80;100.00;101689.00;5051562;28;20065;-90
2021/10/23 08:32:58;;;;;;;64.93;23.95;;;10.90;99.90;;;8.84;100.00;101682.25;5051559;28;20047;-88
2021/10/23 08:35:26;;;;;;;67.05;24.52;;;10.80;99.90;;;8.85;100.00;101688.53;5052383;28;20102;-88
2021/10/23 08:37:55;;;;;;;61.22;24.85;;;10.90;99.90;;;8.82;100.00;101686.97;5051299;28;20041;-91
2021/10/23 08:40:26;;;;;;;65.88;25.27;;;10.90;99.90;;;8.77;100.00;101694.69;5033675;28;20098;-87
2021/10/23 08:42:55;;;;;;;60.50;24.85;;;10.90;99.90;;;8.73;100.00;101690.56;5051518;28;20076;-90
2021/10/23 08:45:23;;;;;;;56.08;23.65;;;10.90;99.90;;;8.79;100.00;101695.41;5051813;28;20048;-87
2021/10/23 08:47:51;;;;;;;53.72;23.00;;;10.90;99.90;;;8.88;100.00;101699.13;5032943;28;20041;-88
2021/10/23 08:50:22;;;;;;;62.17;23.23;;;10.90;99.90;;;8.89;100.00;101696.28;5051116;28;20056;-84
2021/10/23 08:52:53;;;;;;;50.20;20.80;;;10.90;99.90;;;8.93;100.00;101700.41;5047621;28;20045;-87
2021/10/23 08:55:21;;;;;;;57.35;22.88;;;10.90;99.90;;;9.04;100.00;101699.38;5032372;28;20037;-89
2021/10/23 08:58:00;;;;;;;50.58;20.95;;;10.90;99.90;;;9.14;100.00;101707.53;5033161;28;20045;-92
2021/10/23 09:00:28;;;;;;;49.53;21.70;;;11.00;99.90;;;9.22;100.00;101707.66;5032924;28;20052;-89
2021/10/23 09:02:56;;;;;;;60.60;23.35;;;11.00;99.90;;;9.24;100.00;101702.91;5045012;28;20114;-88
2021/10/23 09:05:26;;;;;;;46.35;21.45;;;11.00;99.90;;;9.17;100.00;101709.94;5049737;28;20033;-92
2021/10/23 09:07:54;;;;;;;55.63;22.73;;;11.00;99.90;;;9.11;100.00;101699.66;5048070;28;20072;-86
2021/10/23 09:10:26;;;;;;;57.92;23.00;;;11.10;99.90;;;9.16;100.00;101709.09;5040130;28;20095;-87
2021/10/23 09:13:04;;;;;;;65.80;24.30;;;11.10;99.90;;;9.30;100.00;101715.91;5012622;28;20792;-87
2021/10/23 09:15:37;;;;;;;45.78;20.77;;;11.10;99.90;;;9.30;100.00;101715.91;5020496;28;20052;-87
2021/10/23 09:18:05;;;;;;;56.95;22.33;;;11.10;99.90;;;9.35;100.00;101708.19;5038110;28;20099;-85
2021/10/23 09:20:38;;;;;;;58.55;23.52;;;11.20;99.90;;;9.34;100.00;101717.31;5032794;28;20075;-85
2021/10/23 09:23:12;;;;;;;55.50;23.63;;;11.20;99.90;;;9.38;100.00;101724.16;5030533;28;20141;-86
2021/10/23 09:25:42;;;;;;;64.63;25.75;;;11.20;99.90;;;9.36;100.00;101719.91;5031088;28;20068;-87
2021/10/23 09:28:14;;;;;;;71.93;28.10;;;11.20;99.90;;;9.37;100.00;101727.91;5042051;28;20398;-88
2021/10/23 09:30:45;;;;;;;74.68;30.52;;;11.30;99.90;;;9.32;100.00;101730.19;5032120;28;20048;-87
2021/10/23 09:33:14;;;;;;;74.57;28.83;;;11.30;99.90;;;9.37;100.00;101727.91;5026949;28;20037;-89
2021/10/23 09:35:45;;;;;;;74.90;27.75;;;11.20;99.90;;;9.37;100.00;101727.91;5031694;28;20033;-87
2021/10/23 09:38:14;;;;;;;67.95;26.30;;;11.20;99.90;;;9.42;100.00;101729.31;5049797;28;20044;-87
2021/10/23 09:40:43;;;;;;;72.95;27.63;;;11.30;99.90;;;9.46;100.00;101731.63;5036096;28;20088;-89
2021/10/23 09:43:17;;;;;;;63.88;27.17;;;11.30;99.90;;;9.51;100.00;101739.31;5030850;28;20502;-89
2021/10/23 09:49:17;;;;;;;70.72;25.83;;;11.30;99.90;;;9.70;100.00;101743.81;5159761;22;20066;-93
2021/10/23 09:52:01;;;;;;;64.07;24.95;;;11.40;99.90;;;9.83;100.00;101738.91;5091682;28;20040;-93
2021/10/23 09:54:29;;;;;;;73.40;26.48;;;11.40;99.90;;;9.94;100.00;101738.72;5083542;28;20048;-91
2021/10/23 09:57:30;;;;;;;58.03;23.67;;;11.50;99.90;;;10.04;100.00;101738.66;5072520;28;20036;-93
2021/10/23 10:00:35;;;;;;;60.22;23.52;;;11.50;99.90;;;10.18;100.00;101748.19;5093371;28;20055;-94
2021/10/23 11:17:45;;;;;;;38.15;12.90;;;12.60;99.90;;;11.55;100.00;101767.00;5056895;28;20048;-85
2021/10/23 11:20:13;;;;;;;32.80;13.30;;;12.70;99.90;;;11.61;100.00;101765.53;5058513;28;20045;-85
2021/10/23 11:22:49;;;;;;;34.05;13.23;;;12.80;99.90;;;11.60;100.00;101761.09;5047981;28;20045;-84
2021/10/23 11:25:16;;;;;;;28.60;13.75;;;12.80;99.90;;;11.63;100.00;101767.09;5061257;28;20045;-84
2021/10/23 11:27:45;;;;;;;35.80;14.85;;;12.80;99.90;;;11.67;100.00;101765.75;5047834;28;20126;-85
2021/10/23 11:30:25;;;;;;;35.47;15.23;;;12.90;99.90;;;11.67;100.00;101767.59;5029824;28;20152;-85
2021/10/23 11:33:01;;;;;;;26.73;12.82;;;12.90;99.90;;;11.67;100.00;101773.94;5048143;28;20060;-85
2021/10/23 11:35:32;;;;;;;27.80;13.18;;;12.90;99.90;;;11.61;100.00;101771.81;5047589;28;20041;-85
2021/10/23 11:37:59;;;;;;;30.65;13.07;;;12.90;99.90;;;11.51;100.00;101768.34;5029856;28;20064;-83
2021/10/23 11:40:27;;;;;;;31.77;12.00;;;12.90;99.90;;;11.37;100.00;101771.69;5046799;28;20462;-83
2021/10/23 11:42:54;;;;;;;29.88;12.45;;;12.90;99.90;;;11.21;100.00;101770.50;5047919;28;20126;-83
2021/10/23 11:45:24;;;;;;;36.17;13.32;;;12.90;99.90;;;11.10;100.00;101768.03;5047520;28;20056;-88
2021/10/23 11:47:52;;;;;;;26.98;11.60;;;12.90;99.90;;;11.01;100.00;101766.28;5047687;28;20048;-88
2021/10/23 11:50:33;;;;;;;28.80;11.82;;;12.90;99.90;;;10.94;100.00;101764.16;5048484;28;20095;-88
2021/10/23 11:53:03;;;;;;;28.30;11.15;;;12.80;99.90;;;10.85;100.00;101772.41;5029942;28;20143;-87
2021/10/23 11:55:37;;;;;;;24.80;10.65;;;12.80;99.90;;;10.70;100.00;101763.91;5049105;28;20151;-86
2021/10/23 11:58:07;;;;;;;21.30;9.80;;;12.80;99.90;;;10.72;100.00;101770.94;5047655;28;20542;-86
2021/10/23 12:00:37;;;;;;;20.98;8.88;;;12.70;99.90;;;10.75;100.00;101770.59;5044312;28;20049;-87
2021/10/23 12:03:07;;;;;;;21.95;8.82;;;12.70;99.90;;;10.79;100.00;101778.47;5039772;28;20045;-87